Time;durP1;ratioP1;P1;durP2;ratioP2;P2;SDS_P1;SDS_P2;PMS_P1;PMS_P2;Temp;Humidity;BMP_temperature;BMP_pressure;BME280_temperature;BME280_humidity;BME280_pressure;Samples;Min_cycle;Max_cycle;Signal;HPM_P1;HPM_P2
2022/02/22 00:00:55;;;;;;;21.33;5.47;;;;;;;;;;5052481;28;20753;-69
2022/02/22 00:03:22;;;;;;;23.13;5.07;;;;;;;;;;5039396;28;20182;-69
2022/02/22 00:05:48;;;;;;;25.50;5.50;;;;;;;;;;5050511;28;20549;-70
2022/02/22 00:08:13;;;;;;;29.23;6.67;;;;;;;;;;5049092;28;20194;-69
2022/02/22 00:10:38;;;;;;;21.03;5.60;;;;;;;;;;5049421;28;20177;-69
2022/02/22 00:13:03;;;;;;;28.83;5.40;;;;;;;;;;5048995;28;20201;-69
2022/02/22 00:15:28;;;;;;;29.50;4.87;;;;;;;;;;5053016;28;20556;-69
2022/02/22 00:17:54;;;;;;;34.07;4.63;;;;;;;;;;5050520;28;20208;-69
2022/02/22 00:20:19;;;;;;;25.70;5.17;;;;;;;;;;5049056;28;20174;-69
2022/02/22 00:22:44;;;;;;;30.67;6.67;;;;;;;;;;5034049;28;20231;-69
2022/02/22 00:25:13;;;;;;;28.90;7.03;;;;;;;;;;5047664;28;20184;-69
2022/02/22 00:27:42;;;;;;;29.00;5.77;;;;;;;;;;5048933;28;20647;-69
2022/02/22 00:30:07;;;;;;;26.53;5.30;;;;;;;;;;5032196;28;20441;-69
2022/02/22 00:32:32;;;;;;;28.87;5.27;;;;;;;;;;5047555;28;20201;-69
2022/02/22 00:34:57;;;;;;;24.93;4.93;;;;;;;;;;5048961;28;20186;-69
2022/02/22 00:37:23;;;;;;;24.20;4.90;;;;;;;;;;5052595;28;20192;-69
2022/02/22 00:39:48;;;;;;;23.10;4.83;;;;;;;;;;5053415;28;20173;-69
2022/02/22 00:42:13;;;;;;;22.67;5.47;;;;;;;;;;5051420;28;20227;-69
2022/02/22 00:44:38;;;;;;;21.83;4.80;;;;;;;;;;5051246;28;20212;-69
2022/02/22 00:47:04;;;;;;;31.13;5.77;;;;;;;;;;5054843;28;20204;-72
2022/02/22 00:49:29;;;;;;;31.40;5.63;;;;;;;;;;5055089;28;20287;-69
2022/02/22 00:51:54;;;;;;;21.90;5.03;;;;;;;;;;5032986;28;20178;-70
2022/02/22 00:54:20;;;;;;;29.27;5.17;;;;;;;;;;5052466;28;20174;-70
2022/02/22 00:56:45;;;;;;;25.80;5.57;;;;;;;;;;5052285;28;20687;-69
2022/02/22 00:59:10;;;;;;;32.50;5.50;;;;;;;;;;5053662;28;20194;-70
2022/02/22 01:01:35;;;;;;;21.50;5.67;;;;;;;;;;5052394;28;20613;-69
2022/02/22 01:04:00;;;;;;;17.60;4.10;;;;;;;;;;5051902;28;20611;-70
2022/02/22 01:06:26;;;;;;;28.50;4.50;;;;;;;;;;5034937;28;20186;-69
2022/02/22 01:08:51;;;;;;;26.60;4.93;;;;;;;;;;5052223;28;20205;-70
2022/02/22 01:11:16;;;;;;;22.70;5.23;;;;;;;;;;5052714;28;20190;-70
2022/02/22 01:13:41;;;;;;;27.27;5.43;;;;;;;;;;5050953;28;20268;-70
2022/02/22 01:16:06;;;;;;;24.03;5.00;;;;;;;;;;5052505;28;20636;-69
2022/02/22 01:18:32;;;;;;;20.90;5.07;;;;;;;;;;5034135;28;20208;-70
2022/02/22 01:20:57;;;;;;;30.23;6.07;;;;;;;;;;5053117;28;20649;-69
2022/02/22 01:23:22;;;;;;;29.93;5.30;;;;;;;;;;5052135;28;20177;-69
2022/02/22 01:25:47;;;;;;;33.30;6.37;;;;;;;;;;5052535;28;20174;-69
2022/02/22 01:28:12;;;;;;;27.57;4.83;;;;;;;;;;5052203;28;20218;-70
2022/02/22 01:30:39;;;;;;;27.00;4.97;;;;;;;;;;5052097;28;20208;-70
2022/02/22 01:33:04;;;;;;;28.40;4.77;;;;;;;;;;5053242;28;20284;-70
2022/02/22 01:35:29;;;;;;;38.70;5.67;;;;;;;;;;5050610;28;20604;-70
2022/02/22 01:37:54;;;;;;;28.30;4.93;;;;;;;;;;5048541;28;20197;-70
2022/02/22 01:40:21;;;;;;;25.87;4.97;;;;;;;;;;5051382;28;20178;-70
2022/02/22 01:42:46;;;;;;;27.57;5.23;;;;;;;;;;5052201;28;20560;-69
2022/02/22 01:45:11;;;;;;;16.67;4.70;;;;;;;;;;5032859;28;20196;-70
2022/02/22 01:47:36;;;;;;;26.27;6.10;;;;;;;;;;5052301;28;20627;-69
2022/02/22 01:50:02;;;;;;;20.43;5.00;;;;;;;;;;5057620;28;20186;-72
2022/02/22 01:52:27;;;;;;;21.33;4.73;;;;;;;;;;5031918;28;20194;-71
2022/02/22 01:54:53;;;;;;;29.30;5.97;;;;;;;;;;5047946;28;20182;-72
2022/02/22 01:57:19;;;;;;;28.87;5.60;;;;;;;;;;5051588;28;20264;-71
2022/02/22 01:59:44;;;;;;;30.00;4.63;;;;;;;;;;5050424;28;20675;-71
2022/02/22 02:02:09;;;;;;;17.43;4.67;;;;;;;;;;5052171;28;20256;-71
2022/02/22 02:04:35;;;;;;;31.13;6.13;;;;;;;;;;5048754;28;20178;-71
2022/02/22 02:07:00;;;;;;;32.37;5.73;;;;;;;;;;5051701;28;20169;-71
2022/02/22 02:09:26;;;;;;;21.77;3.70;;;;;;;;;;5053844;28;20270;-69
2022/02/22 02:11:57;;;;;;;27.77;4.90;;;;;;;;;;5054062;28;20673;-72
2022/02/22 02:14:24;;;;;;;34.83;6.07;;;;;;;;;;5050491;28;20181;-71
2022/02/22 02:16:49;;;;;;;26.43;4.90;;;;;;;;;;5051046;28;20182;-72
2022/02/22 02:19:15;;;;;;;28.37;5.03;;;;;;;;;;5050265;28;20721;-69
2022/02/22 02:21:41;;;;;;;32.30;7.10;;;;;;;;;;5051435;28;20256;-69
2022/02/22 02:24:10;;;;;;;28.30;6.43;;;;;;;;;;5052206;28;20738;-69
2022/02/22 02:26:35;;;;;;;19.13;4.23;;;;;;;;;;5050889;28;20177;-69
2022/02/22 02:29:01;;;;;;;29.10;6.40;;;;;;;;;;5051394;28;20216;-70
2022/02/22 02:31:26;;;;;;;32.43;6.43;;;;;;;;;;5033036;28;20177;-70
2022/02/22 02:33:51;;;;;;;24.50;4.57;;;;;;;;;;5032867;28;20224;-70
2022/02/22 02:36:16;;;;;;;22.90;5.57;;;;;;;;;;5051400;28;20223;-70
2022/02/22 02:38:41;;;;;;;37.13;5.53;;;;;;;;;;5051290;28;20216;-70
2022/02/22 02:41:07;;;;;;;25.67;5.37;;;;;;;;;;5051168;28;20181;-70
2022/02/22 02:43:32;;;;;;;26.43;5.10;;;;;;;;;;5050643;28;20189;-70
2022/02/22 02:45:57;;;;;;;25.20;4.50;;;;;;;;;;5051058;28;20181;-70
2022/02/22 02:48:22;;;;;;;27.83;5.93;;;;;;;;;;5047325;28;20209;-70
2022/02/22 02:50:47;;;;;;;23.07;4.63;;;;;;;;;;5051080;28;20383;-70
2022/02/22 02:53:13;;;;;;;25.40;4.77;;;;;;;;;;5050414;28;20197;-70
2022/02/22 02:55:38;;;;;;;21.30;5.30;;;;;;;;;;5050788;28;20612;-70
2022/02/22 02:58:03;;;;;;;35.27;5.93;;;;;;;;;;5050516;28;20189;-70
2022/02/22 03:00:28;;;;;;;22.53;4.83;;;;;;;;;;5050012;28;20648;-70
2022/02/22 03:02:53;;;;;;;30.20;4.37;;;;;;;;;;5050235;28;20758;-70
2022/02/22 03:05:18;;;;;;;23.87;4.80;;;;;;;;;;5030039;28;20188;-70
2022/02/22 03:07:44;;;;;;;23.27;4.70;;;;;;;;;;5048522;28;20201;-70
2022/02/22 03:10:09;;;;;;;24.30;5.07;;;;;;;;;;5052595;28;20193;-70
2022/02/22 03:12:34;;;;;;;28.37;5.33;;;;;;;;;;5052140;28;20274;-70
2022/02/22 03:14:59;;;;;;;20.03;4.97;;;;;;;;;;5035069;28;20261;-70
2022/02/22 03:17:24;;;;;;;28.07;6.10;;;;;;;;;;5049054;28;20212;-70
2022/02/22 03:19:50;;;;;;;30.47;5.67;;;;;;;;;;5049856;28;20181;-70
2022/02/22 03:22:15;;;;;;;22.33;4.33;;;;;;;;;;5032765;28;20192;-69
2022/02/22 03:24:40;;;;;;;22.73;4.90;;;;;;;;;;5049880;28;20227;-70
2022/02/22 03:27:05;;;;;;;25.07;5.37;;;;;;;;;;5050299;28;20181;-70
2022/02/22 03:29:30;;;;;;;25.63;5.37;;;;;;;;;;5031713;28;20220;-70
2022/02/22 03:31:56;;;;;;;20.87;4.03;;;;;;;;;;5049838;28;20185;-69
2022/02/22 03:34:21;;;;;;;20.10;3.70;;;;;;;;;;5048630;28;20548;-70
2022/02/22 03:36:46;;;;;;;28.47;6.20;;;;;;;;;;5050139;28;20176;-70
2022/02/22 03:39:11;;;;;;;25.67;5.37;;;;;;;;;;5050626;28;20552;-70
2022/02/22 03:41:36;;;;;;;25.67;4.50;;;;;;;;;;5049432;28;20644;-70
2022/02/22 03:44:02;;;;;;;21.57;4.17;;;;;;;;;;5050049;28;20655;-70
2022/02/22 03:46:27;;;;;;;15.60;4.13;;;;;;;;;;5049326;28;20210;-70
2022/02/22 03:48:52;;;;;;;26.90;4.10;;;;;;;;;;5049116;28;20204;-70
2022/02/22 03:51:17;;;;;;;17.27;3.93;;;;;;;;;;5049798;28;20185;-70
2022/02/22 03:53:42;;;;;;;21.57;6.37;;;;;;;;;;5049796;28;20232;-70
2022/02/22 03:56:08;;;;;;;17.00;4.57;;;;;;;;;;5049762;28;20185;-70
2022/02/22 03:58:33;;;;;;;21.77;5.13;;;;;;;;;;5049335;28;20778;-70
2022/02/22 04:00:58;;;;;;;25.23;5.30;;;;;;;;;;5048065;28;20177;-70
2022/02/22 04:03:24;;;;;;;23.10;4.40;;;;;;;;;;5031956;28;20189;-70
2022/02/22 04:05:49;;;;;;;23.60;4.33;;;;;;;;;;5049716;28;20173;-71
2022/02/22 04:08:14;;;;;;;23.03;6.00;;;;;;;;;;5048535;28;20193;-70
2022/02/22 04:10:39;;;;;;;19.17;5.17;;;;;;;;;;5050124;28;20200;-72
2022/02/22 04:13:05;;;;;;;15.70;4.17;;;;;;;;;;5050158;28;20208;-70
2022/02/22 04:15:30;;;;;;;19.40;3.47;;;;;;;;;;5051795;28;20528;-70
2022/02/22 04:17:55;;;;;;;30.40;4.73;;;;;;;;;;5052560;28;20201;-70
2022/02/22 04:20:20;;;;;;;16.43;5.13;;;;;;;;;;5051293;28;20702;-70
2022/02/22 04:22:45;;;;;;;19.83;4.93;;;;;;;;;;5051622;28;20258;-70
2022/02/22 04:25:11;;;;;;;28.70;6.60;;;;;;;;;;5053044;28;20655;-70
2022/02/22 04:27:36;;;;;;;22.33;4.17;;;;;;;;;;5052388;28;20583;-70
2022/02/22 04:30:02;;;;;;;14.57;3.70;;;;;;;;;;5053983;28;20714;-70
2022/02/22 04:32:28;;;;;;;24.50;5.37;;;;;;;;;;5053327;28;20224;-70
2022/02/22 04:34:53;;;;;;;23.17;4.27;;;;;;;;;;5052507;28;20647;-70
2022/02/22 04:37:18;;;;;;;27.90;4.27;;;;;;;;;;5053065;28;20532;-70
2022/02/22 04:39:44;;;;;;;23.60;4.47;;;;;;;;;;5053587;28;20599;-70
2022/02/22 04:42:09;;;;;;;20.90;3.83;;;;;;;;;;5053067;28;20631;-71
2022/02/22 04:44:34;;;;;;;18.63;5.03;;;;;;;;;;5053714;28;20177;-70
2022/02/22 04:47:00;;;;;;;24.77;4.13;;;;;;;;;;5052721;28;20652;-70
2022/02/22 04:49:25;;;;;;;21.23;4.43;;;;;;;;;;5053706;28;20259;-70
2022/02/22 04:51:50;;;;;;;22.20;4.97;;;;;;;;;;5053363;28;20176;-70
2022/02/22 04:54:15;;;;;;;27.43;4.40;;;;;;;;;;5052390;28;20555;-70
2022/02/22 04:56:40;;;;;;;19.13;4.60;;;;;;;;;;5052022;28;20205;-70
2022/02/22 04:59:06;;;;;;;15.47;3.67;;;;;;;;;;5055242;28;20288;-70
2022/02/22 05:01:31;;;;;;;21.83;4.00;;;;;;;;;;5051647;28;20193;-70
2022/02/22 05:03:56;;;;;;;21.47;4.10;;;;;;;;;;5052267;28;20196;-70
2022/02/22 05:06:21;;;;;;;14.97;3.73;;;;;;;;;;5052762;28;20274;-70
2022/02/22 05:08:46;;;;;;;15.83;3.37;;;;;;;;;;5049889;28;20217;-70
2022/02/22 05:11:12;;;;;;;16.97;3.43;;;;;;;;;;5053277;28;20193;-70
2022/02/22 05:13:37;;;;;;;12.50;3.10;;;;;;;;;;5051845;28;20266;-70
2022/02/22 05:16:02;;;;;;;13.97;3.40;;;;;;;;;;5052862;28;20584;-70
2022/02/22 05:18:28;;;;;;;23.30;4.03;;;;;;;;;;5051571;28;20225;-70
2022/02/22 05:20:56;;;;;;;20.03;3.40;;;;;;;;;;5052021;28;20205;-70
2022/02/22 05:23:22;;;;;;;24.53;4.40;;;;;;;;;;5050222;28;20185;-70
2022/02/22 05:25:48;;;;;;;17.47;3.67;;;;;;;;;;5050484;28;20181;-70
2022/02/22 05:28:13;;;;;;;19.43;4.93;;;;;;;;;;5034459;28;20702;-70
2022/02/22 05:30:39;;;;;;;23.43;4.23;;;;;;;;;;5052664;28;20235;-70
2022/02/22 05:33:04;;;;;;;26.37;3.33;;;;;;;;;;5035224;28;20193;-70
2022/02/22 05:35:29;;;;;;;16.47;3.23;;;;;;;;;;5051603;28;20252;-70
2022/02/22 05:37:55;;;;;;;16.73;3.67;;;;;;;;;;5054614;28;20198;-70
2022/02/22 05:40:20;;;;;;;20.53;6.93;;;;;;;;;;5053948;28;20663;-70
2022/02/22 05:42:45;;;;;;;19.90;3.60;;;;;;;;;;5052196;28;20651;-70
2022/02/22 05:45:10;;;;;;;22.17;4.00;;;;;;;;;;5052017;28;20213;-70
2022/02/22 05:47:35;;;;;;;20.63;3.77;;;;;;;;;;5051995;28;20181;-70
2022/02/22 05:50:01;;;;;;;16.63;4.10;;;;;;;;;;5057947;28;20189;-70
2022/02/22 05:52:26;;;;;;;23.30;5.27;;;;;;;;;;5051285;28;20205;-70
2022/02/22 05:54:51;;;;;;;17.33;3.77;;;;;;;;;;5049633;28;20182;-70
2022/02/22 05:57:16;;;;;;;21.47;4.00;;;;;;;;;;5051857;28;20201;-70
2022/02/22 05:59:41;;;;;;;15.33;4.03;;;;;;;;;;5054064;28;20213;-70
2022/02/22 06:02:06;;;;;;;21.00;3.83;;;;;;;;;;5050468;28;20166;-70
2022/02/22 06:04:32;;;;;;;21.70;3.70;;;;;;;;;;5050948;28;20185;-70
2022/02/22 06:06:57;;;;;;;21.43;4.40;;;;;;;;;;5056084;28;20177;-70
2022/02/22 06:09:22;;;;;;;21.77;4.23;;;;;;;;;;5051224;28;20194;-70
2022/02/22 06:11:48;;;;;;;24.17;5.30;;;;;;;;;;5051756;28;20643;-70
2022/02/22 06:14:14;;;;;;;17.17;5.00;;;;;;;;;;5051286;28;20275;-70
2022/02/22 06:16:39;;;;;;;14.90;3.27;;;;;;;;;;5051745;28;20651;-70
2022/02/22 06:19:04;;;;;;;15.93;4.00;;;;;;;;;;5051447;28;20201;-70
2022/02/22 06:21:29;;;;;;;23.33;4.13;;;;;;;;;;5033795;28;20180;-70
2022/02/22 06:23:55;;;;;;;17.40;4.30;;;;;;;;;;5050910;28;20189;-70
2022/02/22 06:26:20;;;;;;;19.57;4.13;;;;;;;;;;5049449;28;20243;-70
2022/02/22 06:28:46;;;;;;;22.93;3.80;;;;;;;;;;5051193;28;21231;-70
2022/02/22 06:31:11;;;;;;;20.60;4.00;;;;;;;;;;5049428;28;20185;-70
2022/02/22 06:33:36;;;;;;;20.67;4.63;;;;;;;;;;5050754;28;20209;-70
2022/02/22 06:36:01;;;;;;;16.50;4.87;;;;;;;;;;5049780;28;20545;-70
2022/02/22 06:38:26;;;;;;;20.83;3.50;;;;;;;;;;5050778;28;20197;-70
2022/02/22 06:40:52;;;;;;;17.37;3.50;;;;;;;;;;5052320;28;20177;-70
2022/02/22 06:43:18;;;;;;;15.60;3.97;;;;;;;;;;5051853;28;20177;-70
2022/02/22 06:45:43;;;;;;;11.80;2.93;;;;;;;;;;5052158;28;20178;-70
2022/02/22 06:48:08;;;;;;;18.10;3.30;;;;;;;;;;5051850;28;20209;-70
2022/02/22 06:50:35;;;;;;;17.47;3.50;;;;;;;;;;5045528;28;20178;-70
2022/02/22 06:53:00;;;;;;;17.97;3.87;;;;;;;;;;5052018;28;20200;-70
2022/02/22 06:55:25;;;;;;;25.13;3.77;;;;;;;;;;5049166;28;20173;-70
2022/02/22 06:57:52;;;;;;;20.20;3.67;;;;;;;;;;5051385;28;20189;-70
2022/02/22 07:00:18;;;;;;;12.77;4.60;;;;;;;;;;5053180;28;20174;-70
2022/02/22 07:02:43;;;;;;;14.17;3.17;;;;;;;;;;5051905;28;20205;-70
2022/02/22 07:05:09;;;;;;;29.10;5.27;;;;;;;;;;5035293;28;20220;-70
2022/02/22 07:07:34;;;;;;;25.27;5.37;;;;;;;;;;5050300;28;20184;-70
2022/02/22 07:09:59;;;;;;;14.13;3.80;;;;;;;;;;5049697;28;20173;-70
2022/02/22 07:12:24;;;;;;;16.20;4.23;;;;;;;;;;5048710;28;20727;-70
2022/02/22 07:14:49;;;;;;;14.37;3.33;;;;;;;;;;5050087;28;20193;-69
2022/02/22 07:17:15;;;;;;;21.87;4.13;;;;;;;;;;5049970;28;20232;-70
2022/02/22 07:19:40;;;;;;;16.43;2.87;;;;;;;;;;5033274;28;20198;-70
2022/02/22 07:22:05;;;;;;;15.83;4.73;;;;;;;;;;5050487;28;20196;-70
2022/02/22 07:24:30;;;;;;;18.27;4.63;;;;;;;;;;5050888;28;20177;-70
2022/02/22 07:26:56;;;;;;;17.23;3.67;;;;;;;;;;5050657;28;20641;-69
2022/02/22 07:29:22;;;;;;;15.87;3.67;;;;;;;;;;5047582;28;20247;-72
2022/02/22 07:31:47;;;;;;;11.07;3.33;;;;;;;;;;5048617;28;20206;-69
2022/02/22 07:34:12;;;;;;;13.77;3.93;;;;;;;;;;5048970;28;20312;-70
2022/02/22 07:36:38;;;;;;;20.40;3.63;;;;;;;;;;5048863;28;20182;-70
2022/02/22 07:39:05;;;;;;;8.93;4.07;;;;;;;;;;5049753;28;20198;-70
2022/02/22 07:41:30;;;;;;;18.77;4.50;;;;;;;;;;5049617;28;20177;-70
2022/02/22 07:43:55;;;;;;;14.73;3.00;;;;;;;;;;5049695;28;20174;-70
2022/02/22 07:46:20;;;;;;;18.40;3.77;;;;;;;;;;5048589;28;20264;-70
2022/02/22 07:48:47;;;;;;;13.97;3.60;;;;;;;;;;5050643;28;20686;-70
2022/02/22 07:51:16;;;;;;;18.57;3.50;;;;;;;;;;5051007;28;20235;-70
2022/02/22 07:53:41;;;;;;;22.00;3.87;;;;;;;;;;5051017;28;20630;-70
2022/02/22 07:56:06;;;;;;;16.20;5.13;;;;;;;;;;5050780;28;20256;-70
2022/02/22 07:58:32;;;;;;;16.00;4.30;;;;;;;;;;5052028;28;20235;-70
2022/02/22 08:00:58;;;;;;;18.10;4.97;;;;;;;;;;5051865;28;20253;-70
2022/02/22 08:03:23;;;;;;;19.87;4.77;;;;;;;;;;5054404;28;20185;-70
2022/02/22 08:05:48;;;;;;;24.83;5.97;;;;;;;;;;5051744;28;20176;-70
2022/02/22 08:08:13;;;;;;;25.33;5.10;;;;;;;;;;5051340;28;20255;-70
2022/02/22 08:10:38;;;;;;;22.93;5.50;;;;;;;;;;5058151;28;20181;-70
2022/02/22 08:13:03;;;;;;;23.33;5.23;;;;;;;;;;5050452;28;20200;-70
2022/02/22 08:15:29;;;;;;;28.37;5.27;;;;;;;;;;5050723;28;20635;-70
2022/02/22 08:17:54;;;;;;;22.70;5.30;;;;;;;;;;5040870;28;20189;-70
2022/02/22 08:20:19;;;;;;;27.37;5.63;;;;;;;;;;5050822;28;20174;-70
2022/02/22 08:22:44;;;;;;;25.63;4.23;;;;;;;;;;5050410;28;20219;-70
2022/02/22 08:25:10;;;;;;;24.60;4.30;;;;;;;;;;5050331;28;20272;-70
2022/02/22 08:27:35;;;;;;;22.87;4.77;;;;;;;;;;5050228;28;20166;-70
2022/02/22 08:30:00;;;;;;;19.47;4.40;;;;;;;;;;5050874;28;20542;-70
2022/02/22 08:32:25;;;;;;;22.20;4.40;;;;;;;;;;5050577;28;20694;-69
2022/02/22 08:34:51;;;;;;;25.50;5.47;;;;;;;;;;5050325;28;20322;-70
2022/02/22 08:37:16;;;;;;;22.57;5.03;;;;;;;;;;5050282;28;20178;-70
2022/02/22 08:39:41;;;;;;;16.93;5.20;;;;;;;;;;5050362;28;20201;-70
2022/02/22 08:42:09;;;;;;;25.10;6.37;;;;;;;;;;5054605;28;20180;-70
2022/02/22 08:44:35;;;;;;;19.47;5.27;;;;;;;;;;5050248;28;20170;-69
2022/02/22 08:47:00;;;;;;;19.53;5.17;;;;;;;;;;5049678;28;20204;-69
2022/02/22 08:49:25;;;;;;;28.40;5.10;;;;;;;;;;5048333;28;20200;-70
2022/02/22 08:51:50;;;;;;;28.00;5.97;;;;;;;;;;5049946;28;20552;-69
2022/02/22 08:54:16;;;;;;;18.13;7.23;;;;;;;;;;5030462;28;20260;-70
2022/02/22 08:56:41;;;;;;;18.53;5.20;;;;;;;;;;5049543;28;20412;-69
2022/02/22 08:59:06;;;;;;;25.00;5.03;;;;;;;;;;5053876;28;20635;-70
2022/02/22 09:01:31;;;;;;;21.33;6.03;;;;;;;;;;5054205;28;20173;-69
2022/02/22 09:03:56;;;;;;;35.43;7.43;;;;;;;;;;5053794;28;20184;-70
2022/02/22 09:06:23;;;;;;;22.77;4.80;;;;;;;;;;5042540;28;20357;-70
2022/02/22 09:08:48;;;;;;;22.57;6.77;;;;;;;;;;5059519;28;20200;-70
2022/02/22 09:11:14;;;;;;;23.33;5.60;;;;;;;;;;5056141;28;20657;-69
2022/02/22 09:13:39;;;;;;;22.60;5.83;;;;;;;;;;5053233;28;20205;-70
2022/02/22 09:16:04;;;;;;;20.63;6.87;;;;;;;;;;5054176;28;20185;-69
2022/02/22 09:18:29;;;;;;;23.20;6.90;;;;;;;;;;5053622;28;20292;-70
2022/02/22 09:20:54;;;;;;;21.80;8.47;;;;;;;;;;5053364;28;20166;-69
2022/02/22 09:23:20;;;;;;;21.67;6.80;;;;;;;;;;5053840;28;20182;-70
2022/02/22 09:25:45;;;;;;;18.47;6.13;;;;;;;;;;5053202;28;20539;-69
2022/02/22 09:28:10;;;;;;;28.87;7.90;;;;;;;;;;5053387;28;20212;-70
2022/02/22 09:30:36;;;;;;;19.63;6.57;;;;;;;;;;5053186;28;20176;-70
2022/02/22 09:33:01;;;;;;;21.07;7.57;;;;;;;;;;5053382;28;20193;-70
2022/02/22 09:35:27;;;;;;;28.40;7.80;;;;;;;;;;5052717;28;20231;-70
2022/02/22 09:37:53;;;;;;;29.80;9.50;;;;;;;;;;5053530;28;20690;-70
2022/02/22 09:40:19;;;;;;;20.50;7.33;;;;;;;;;;5053197;28;20250;-70
2022/02/22 09:42:44;;;;;;;28.23;6.67;;;;;;;;;;5053351;28;20264;-69
2022/02/22 09:45:10;;;;;;;25.13;7.53;;;;;;;;;;5052896;28;20664;-70
2022/02/22 09:47:36;;;;;;;34.50;9.60;;;;;;;;;;5053194;28;20181;-70
2022/02/22 09:50:02;;;;;;;20.87;7.57;;;;;;;;;;5053160;28;20548;-70
2022/02/22 09:52:27;;;;;;;20.17;7.57;;;;;;;;;;5053592;28;20190;-71
2022/02/22 09:54:52;;;;;;;26.63;7.53;;;;;;;;;;5052435;28;20181;-70
2022/02/22 09:57:17;;;;;;;27.20;7.93;;;;;;;;;;5055330;28;20256;-70
2022/02/22 09:59:43;;;;;;;28.57;7.87;;;;;;;;;;5051707;28;20197;-70
2022/02/22 10:02:08;;;;;;;22.47;7.47;;;;;;;;;;5055426;28;20194;-70
2022/02/22 10:04:46;;;;;;;23.03;7.47;;;;;;;;;;5051138;28;20181;-70
2022/02/22 10:07:12;;;;;;;22.47;7.13;;;;;;;;;;5051598;28;20610;-71
2022/02/22 10:09:50;;;;;;;20.80;7.10;;;;;;;;;;5050796;28;20288;-71
2022/02/22 10:12:25;;;;;;;20.40;7.23;;;;;;;;;;5052730;28;20216;-70
2022/02/22 10:14:50;;;;;;;24.50;7.67;;;;;;;;;;5052125;28;20177;-70
2022/02/22 10:17:15;;;;;;;23.47;8.67;;;;;;;;;;5052855;28;20268;-70
2022/02/22 10:19:41;;;;;;;42.67;8.67;;;;;;;;;;5052283;28;20260;-70
2022/02/22 10:22:08;;;;;;;22.47;6.90;;;;;;;;;;5052786;28;20252;-71
2022/02/22 10:24:33;;;;;;;24.03;7.10;;;;;;;;;;5049706;28;20647;-70
2022/02/22 10:27:04;;;;;;;20.50;6.90;;;;;;;;;;5053359;28;20308;-70
2022/02/22 10:29:30;;;;;;;24.23;6.37;;;;;;;;;;5052933;28;20563;-70
2022/02/22 10:31:55;;;;;;;22.63;6.17;;;;;;;;;;5052702;28;20267;-70
2022/02/22 10:34:29;;;;;;;24.20;6.03;;;;;;;;;;5051913;28;20202;-71
2022/02/22 10:36:55;;;;;;;18.73;5.20;;;;;;;;;;5052401;28;20173;-70
2022/02/22 10:39:20;;;;;;;22.53;5.77;;;;;;;;;;5051952;28;20192;-70
2022/02/22 10:41:46;;;;;;;23.33;5.63;;;;;;;;;;5052369;28;20170;-70
2022/02/22 10:44:12;;;;;;;26.10;6.83;;;;;;;;;;5051766;28;20255;-70
2022/02/22 10:46:40;;;;;;;30.60;7.87;;;;;;;;;;5052279;28;20595;-70
2022/02/22 10:49:09;;;;;;;28.10;7.63;;;;;;;;;;5051220;28;20193;-70
2022/02/22 10:51:45;;;;;;;25.40;7.10;;;;;;;;;;5046317;28;20264;-70
2022/02/22 10:54:19;;;;;;;26.10;6.73;;;;;;;;;;5051513;28;20205;-70
2022/02/22 10:56:44;;;;;;;28.60;7.30;;;;;;;;;;5041812;28;20177;-70
2022/02/22 10:59:09;;;;;;;35.50;8.53;;;;;;;;;;5055361;28;20205;-70
2022/02/22 11:01:36;;;;;;;41.47;7.67;;;;;;;;;;5051634;28;20173;-70
2022/02/22 11:04:02;;;;;;;22.00;6.67;;;;;;;;;;5058584;28;20183;-71
2022/02/22 11:06:27;;;;;;;22.60;7.23;;;;;;;;;;5051503;28;20663;-70
2022/02/22 11:08:53;;;;;;;30.73;9.40;;;;;;;;;;5054187;28;20664;-70
2022/02/22 11:11:21;;;;;;;29.33;6.90;;;;;;;;;;5048945;28;20191;-70
2022/02/22 11:14:06;;;;;;;28.57;7.53;;;;;;;;;;5031580;28;20233;-70
2022/02/22 11:16:38;;;;;;;24.27;6.80;;;;;;;;;;5051462;28;20174;-70
2022/02/22 11:19:11;;;;;;;29.17;9.23;;;;;;;;;;5050822;28;20244;-70
2022/02/22 11:21:36;;;;;;;23.67;7.57;;;;;;;;;;5051013;28;20277;-71
2022/02/22 11:24:03;;;;;;;21.47;7.90;;;;;;;;;;5050987;28;20706;-71
2022/02/22 11:26:42;;;;;;;23.67;7.77;;;;;;;;;;5051336;28;20227;-70
2022/02/22 11:29:07;;;;;;;26.87;7.87;;;;;;;;;;5050843;28;20255;-71
2022/02/22 11:31:32;;;;;;;22.47;7.90;;;;;;;;;;5051342;28;20205;-71
2022/02/22 11:33:59;;;;;;;23.17;7.83;;;;;;;;;;5035234;28;20197;-70
2022/02/22 11:36:35;;;;;;;20.27;7.17;;;;;;;;;;5051248;28;20594;-70
2022/02/22 11:39:01;;;;;;;26.57;8.73;;;;;;;;;;5052719;28;20193;-70
2022/02/22 11:41:28;;;;;;;26.20;9.17;;;;;;;;;;5051364;28;20177;-70
2022/02/22 11:43:53;;;;;;;28.53;9.10;;;;;;;;;;5050890;28;20551;-70
2022/02/22 11:46:18;;;;;;;30.47;10.37;;;;;;;;;;5051123;28;20180;-70
2022/02/22 11:48:44;;;;;;;27.60;7.60;;;;;;;;;;5051161;28;20221;-71
2022/02/22 11:51:10;;;;;;;36.77;12.67;;;;;;;;;;5051000;28;20170;-71
2022/02/22 11:53:36;;;;;;;28.50;9.87;;;;;;;;;;5050948;28;20225;-70
2022/02/22 11:56:01;;;;;;;30.23;8.67;;;;;;;;;;5035073;28;20639;-70
2022/02/22 11:58:27;;;;;;;28.47;9.67;;;;;;;;;;5053854;28;20190;-70
2022/02/22 12:01:00;;;;;;;25.90;9.77;;;;;;;;;;5050892;28;20260;-71
2022/02/22 12:03:26;;;;;;;29.50;9.30;;;;;;;;;;5032616;28;20182;-70
2022/02/22 12:05:57;;;;;;;33.57;10.40;;;;;;;;;;5050489;28;20212;-70
2022/02/22 12:08:33;;;;;;;25.27;8.73;;;;;;;;;;5050758;28;20743;-70
2022/02/22 12:10:59;;;;;;;32.53;9.43;;;;;;;;;;5050735;28;20265;-70
2022/02/22 12:13:41;;;;;;;32.30;8.30;;;;;;;;;;5035441;28;20205;-70
2022/02/22 12:16:18;;;;;;;29.70;8.97;;;;;;;;;;5049985;28;20517;-69
2022/02/22 12:18:44;;;;;;;25.83;8.40;;;;;;;;;;5049324;28;20212;-70
2022/02/22 12:21:09;;;;;;;25.83;9.47;;;;;;;;;;5050312;28;20177;-71
2022/02/22 12:23:37;;;;;;;25.73;8.43;;;;;;;;;;5048978;28;20189;-71
2022/02/22 12:26:05;;;;;;;25.17;8.17;;;;;;;;;;5032394;28;20670;-70
2022/02/22 12:28:30;;;;;;;26.10;9.03;;;;;;;;;;5050519;28;20228;-71
2022/02/22 12:30:58;;;;;;;21.57;7.50;;;;;;;;;;5050795;28;20640;-71
2022/02/22 12:33:33;;;;;;;26.33;8.13;;;;;;;;;;5054401;28;20208;-70
2022/02/22 12:36:11;;;;;;;24.20;8.37;;;;;;;;;;5054287;28;20169;-68
2022/02/22 12:38:36;;;;;;;28.70;8.53;;;;;;;;;;5047120;28;20201;-70
2022/02/22 12:41:10;;;;;;;22.87;7.40;;;;;;;;;;5054238;28;20268;-71
2022/02/22 12:43:42;;;;;;;17.13;7.13;;;;;;;;;;5048047;28;20181;-71
2022/02/22 12:46:08;;;;;;;25.53;7.17;;;;;;;;;;5051185;28;20185;-70
2022/02/22 12:48:38;;;;;;;21.20;6.40;;;;;;;;;;5054358;28;20193;-71
2022/02/22 12:51:03;;;;;;;21.60;7.33;;;;;;;;;;5053243;28;20666;-70
2022/02/22 12:53:31;;;;;;;23.70;7.17;;;;;;;;;;5052344;28;20202;-71
2022/02/22 12:55:56;;;;;;;20.10;7.30;;;;;;;;;;5057499;28;20301;-71
2022/02/22 12:58:30;;;;;;;19.37;8.17;;;;;;;;;;5054104;28;20190;-70
2022/02/22 13:01:09;;;;;;;16.70;7.17;;;;;;;;;;5057873;28;20253;-71
2022/02/22 13:03:35;;;;;;;19.23;6.30;;;;;;;;;;5050727;28;20184;-71
2022/02/22 13:06:00;;;;;;;19.70;6.77;;;;;;;;;;5053875;28;20196;-70
2022/02/22 13:08:25;;;;;;;23.83;7.00;;;;;;;;;;5056188;28;20891;-71
2022/02/22 13:10:51;;;;;;;16.97;6.23;;;;;;;;;;5057378;28;20181;-70
2022/02/22 13:13:23;;;;;;;20.53;6.63;;;;;;;;;;5053536;28;20204;-71
2022/02/22 13:15:49;;;;;;;19.13;6.70;;;;;;;;;;5053622;28;20174;-71
2022/02/22 13:18:15;;;;;;;17.57;6.50;;;;;;;;;;5053467;28;20267;-71
2022/02/22 13:20:44;;;;;;;20.20;8.07;;;;;;;;;;5053754;28;20211;-71
2022/02/22 13:23:11;;;;;;;17.33;6.00;;;;;;;;;;5052768;28;20193;-70
2022/02/22 13:25:37;;;;;;;20.37;5.33;;;;;;;;;;5053336;28;20251;-71
2022/02/22 13:28:02;;;;;;;13.60;6.43;;;;;;;;;;5051793;28;20249;-70
2022/02/22 13:30:28;;;;;;;11.70;5.33;;;;;;;;;;5052510;28;20247;-70
2022/02/22 13:33:01;;;;;;;12.83;4.70;;;;;;;;;;5053509;28;20793;-71
2022/02/22 13:35:26;;;;;;;14.17;4.40;;;;;;;;;;5052961;28;20173;-70
2022/02/22 13:37:51;;;;;;;10.07;4.33;;;;;;;;;;5053385;28;20528;-71
2022/02/22 13:40:19;;;;;;;16.13;4.70;;;;;;;;;;5053939;28;20177;-70
2022/02/22 13:42:44;;;;;;;14.33;4.60;;;;;;;;;;5053059;28;20170;-70
2022/02/22 13:45:14;;;;;;;17.10;4.40;;;;;;;;;;5035070;28;20281;-70
2022/02/22 13:47:40;;;;;;;13.30;4.20;;;;;;;;;;5053114;28;20189;-70
2022/02/22 13:50:17;;;;;;;13.17;4.00;;;;;;;;;;5053357;28;20182;-70
2022/02/22 13:52:51;;;;;;;10.00;3.80;;;;;;;;;;5046368;28;20201;-70
2022/02/22 13:55:16;;;;;;;14.70;4.30;;;;;;;;;;5053502;28;20216;-70
2022/02/22 13:57:46;;;;;;;16.80;3.73;;;;;;;;;;5053000;28;20221;-70
2022/02/22 14:00:12;;;;;;;17.50;5.17;;;;;;;;;;5054404;28;20170;-70
2022/02/22 14:02:37;;;;;;;11.87;3.83;;;;;;;;;;5052825;28;20228;-70
2022/02/22 14:05:09;;;;;;;12.10;4.13;;;;;;;;;;5052234;28;20170;-70
2022/02/22 14:07:34;;;;;;;13.43;4.13;;;;;;;;;;5050475;28;20174;-70
2022/02/22 14:10:02;;;;;;;11.97;3.77;;;;;;;;;;5057547;28;20187;-70
2022/02/22 14:12:27;;;;;;;21.17;4.30;;;;;;;;;;5052568;28;20186;-70
2022/02/22 14:14:52;;;;;;;13.83;4.13;;;;;;;;;;5052666;28;20177;-71
2022/02/22 14:17:17;;;;;;;17.63;4.23;;;;;;;;;;5052503;28;20190;-71
2022/02/22 14:19:43;;;;;;;13.50;4.20;;;;;;;;;;5052409;28;20190;-71
2022/02/22 14:22:08;;;;;;;15.67;3.87;;;;;;;;;;5052319;28;21361;-70
2022/02/22 14:24:33;;;;;;;15.57;4.73;;;;;;;;;;5052447;28;20180;-70